Date,TemperatureHighF,TemperatureAvgF,TemperatureLowF,DewpointHighF,DewpointAvgF,DewpointLowF,HumidityHigh,HumidityAvg,HumidityLow,PressureMaxIn,PressureMinIn,WindSpeedMaxMPH,WindSpeedAvgMPH,GustSpeedMaxMPH,PrecipitationSumIn
2013-1-1,55,46,40,44,34,24,85,63,50,30.23,30.13,5,1,6,0.00
2013-1-2,64,51,43,39,28,20,51,41,25,30.19,30.08,4,1,5,0.00
2013-1-3,65,54,48,39,27,18,66,35,25,30.18,30.09,4,1,4,0.00
2013-1-4,63,53,43,46,34,23,84,51,28,30.21,30.13,5,1,6,0.00
2013-1-5,59,47,42,46,43,37,96,85,57,30.24,30.09,13,4,16,0.47
2013-1-6,46,43,38,42,40,36,96,88,80,30.17,30.01,6,2,11,0.95
2013-1-7,58,48,41,47,42,35,95,79,62,30.24,30.11,7,2,8,0.00
2013-1-8,71,58,50,52,43,37,76,58,38,30.14,30.05,4,2,12,0.00
2013-1-9,58,49,39,47,42,36,96,79,49,30.09,29.99,7,2,8,0.31
2013-1-10,42,40,38,38,36,34,90,83,76,30.20,30.06,8,3,19,0.18
2013-1-11,45,42,39,40,36,32,93,81,66,30.25,30.12,8,3,14,0.08
2013-1-12,49,40,35,36,30,25,88,68,42,30.22,30.11,4,1,7,0.00
2013-1-13,50,41,34,31,19,7,71,43,23,30.22,30.12,6,2,9,0.00
2013-1-14,51,42,34,34,21,10,54,43,30,30.38,30.17,3,1,9,0.00
2013-1-15,54,44,37,38,29,20,73,56,43,30.44,30.36,2,0,4,0.00
2013-1-16,60,50,42,40,33,29,64,53,38,30.38,30.20,3,0,6,0.00
2013-1-17,72,61,50,42,32,26,46,34,23,30.20,30.08,3,0,3,0.00
2013-1-18,73,62,55,40,30,20,45,30,20,30.14,30.07,3,0,3,0.00
2013-1-19,73,62,56,39,27,18,34,27,19,30.16,30.09,2,0,4,0.00
2013-1-20,75,62,56,35,19,6,30,19,12,30.15,30.05,2,0,7,0.00
2013-1-21,75,64,59,36,17,-2,28,17,7,30.10,30.00,5,1,6,0.00
2013-1-22,71,64,57,34,17,8,27,17,11,30.05,29.96,15,5,20,0.00
2013-1-23,67,58,47,47,30,12,92,42,14,30.03,29.92,19,4,24,0.02
2013-1-24,55,52,48,54,51,45,97,95,81,30.15,29.97,3,0,5,0.31
2013-1-25,69,58,52,59,53,50,98,86,62,30.14,29.98,5,1,10,0.01
2013-1-26,55,49,43,51,44,37,96,86,65,30.08,29.95,10,2,12,0.00
2013-1-27,47,43,40,40,38,37,91,84,73,30.17,30.07,6,3,11,0.03
2013-1-28,48,44,40,42,40,35,90,84,78,30.29,30.16,7,4,17,0.00
2013-1-29,57,47,41,45,41,37,92,80,49,30.30,30.22,7,4,9,0.00
2013-1-30,64,53,45,48,41,30,82,63,43,30.33,30.21,6,1,16,0.00
2013-1-31,68,57,50,45,36,24,64,46,33,30.25,30.13,3,0,3,0.00
2013-2-1,70,58,48,48,38,26,88,49,31,30.18,30.08,3,1,5,0.00
2013-2-2,65,54,44,52,40,31,94,60,38,30.22,30.16,5,0,5,0.00
2013-2-3,59,47,40,49,41,28,96,82,37,30.20,30.10,6,1,7,0.00
2013-2-4,68,53,41,48,37,25,95,57,34,30.13,30.02,5,1,7,0.00
2013-2-5,52,45,39,47,41,38,97,87,72,30.12,30.01,9,2,11,0.00
2013-2-6,58,46,39,47,36,27,86,70,59,30.16,30.10,8,2,9,0.00
2013-2-10,56,49,43,41,35,28,76,59,38,30.10,30.00,2,1,4,0.00
2013-2-11,58,48,42,43,34,28,75,60,48,30.23,30.04,3,0,4,0.00
2013-2-12,58,48,42,47,36,26,91,63,49,30.33,30.23,2,0,3,0.00
2013-2-13,61,53,47,48,41,35,87,66,49,30.30,30.18,5,1,7,0.00
2013-2-14,66,58,51,44,37,29,62,47,33,30.19,30.10,4,1,5,0.00
2013-2-15,76,64,57,44,34,30,39,33,20,30.21,30.14,3,1,4,0.00
2013-2-16,73,62,48,44,32,24,58,33,23,30.17,30.01,3,1,4,0.00
2013-2-17,55,46,40,45,40,34,95,83,45,30.02,29.95,4,1,5,0.00
2013-2-18,46,42,38,42,38,33,92,88,81,30.07,29.99,4,1,7,0.00
2013-2-19,44,39,35,42,36,33,96,91,81,30.00,29.76,18,2,22,0.85
2013-2-20,49,42,35,42,36,31,92,82,61,30.09,29.82,7,3,11,0.02
2013-2-21,53,45,41,42,37,31,93,74,49,30.16,30.06,8,3,11,0.00
2013-2-22,59,48,41,44,35,27,91,62,39,30.25,30.16,6,1,6,0.00
2013-2-23,52,45,42,44,39,30,94,78,57,30.23,30.12,8,4,10,0.01
2013-2-24,64,50,42,38,26,14,68,42,17,30.24,30.13,7,2,12,0.00
2013-2-25,60,49,42,46,35,20,92,61,33,30.24,30.12,5,1,11,0.00
2013-2-26,70,56,46,44,26,12,76,34,12,30.15,30.06,8,2,13,0.00
2013-2-27,58,57,55,21,19,17,26,23,20,30.18,30.15,3,2,5,0.00
2013-3-1,79,68,60,51,44,29,60,44,29,30.32,30.18,8,2,10,0.00
2013-3-2,70,60,47,51,40,26,94,50,26,30.19,30.03,14,2,19,0.00
2013-3-3,61,51,42,49,44,34,96,78,38,30.10,30.03,9,2,11,0.00
2013-3-4,57,46,40,49,42,38,96,88,73,30.13,30.04,7,2,9,0.00
2013-3-5,55,45,39,45,40,37,96,84,65,30.08,29.95,18,6,25,0.00
2013-3-6,49,13,45,47,-59,-100,97,26,90,30.08,30.02,4,-721,26,0.38
2013-3-13,-200,0,200,-100,-100,-100,0,0,100,30.11,30.06,0,-999,0,0.00
2013-3-14,-200,0,200,-100,-100,-100,0,0,100,30.12,30.04,0,-999,0,0.00
2013-3-17,64,49,43,50,41,32,91,75,54,30.06,30.02,3,1,5,0.00
2013-3-18,68,55,44,51,36,21,94,53,22,30.09,30.00,4,1,6,0.00
2013-3-19,71,60,48,50,41,32,83,53,34,30.14,30.00,6,1,11,0.01
2013-3-20,60,54,49,50,45,30,95,74,38,30.13,30.05,5,1,7,0.00
2013-3-21,61,48,40,48,43,38,96,83,62,30.10,29.97,6,2,8,0.00
2013-3-22,68,56,43,41,27,10,87,37,11,30.02,29.95,7,4,10,0.00
2013-3-24,67,57,47,49,42,26,82,58,26,30.04,29.94,2,1,4,0.00
2013-3-25,68,52,41,50,42,33,93,70,42,29.99,29.92,5,1,6,0.00
2013-3-26,63,51,39,50,44,37,94,79,59,29.98,29.94,5,1,7,0.00
2013-3-27,65,53,46,53,48,42,95,83,63,30.02,29.94,10,1,10,0.00
2013-3-28,65,54,49,55,49,42,94,85,62,30.07,29.99,4,1,7,0.00
2013-3-29,67,56,50,52,47,41,90,71,53,30.06,30.00,11,2,14,0.00
2013-3-30,63,53,45,51,47,39,96,81,46,30.06,29.99,19,6,24,0.25
2013-3-31,60,53,48,51,48,46,94,83,68,30.07,29.99,20,9,26,0.00
2013-4-1,57,51,46,51,49,45,95,92,79,30.14,30.03,12,2,14,0.22
2013-4-2,62,52,45,55,48,43,96,87,70,30.16,30.06,4,1,5,0.00
2013-4-3,74,58,46,56,49,42,94,71,49,30.09,29.99,4,1,5,0.00
2013-4-4,65,54,46,58,51,41,96,90,61,30.10,30.00,9,2,12,0.04
2013-4-5,62,51,45,53,48,44,95,88,72,30.18,30.09,6,1,10,0.00
2013-4-6,62,53,46,55,48,43,95,84,69,30.19,30.12,6,2,9,0.00
2013-4-7,63,53,46,53,47,40,95,81,59,30.16,29.92,6,2,11,0.01
2013-4-8,52,46,42,47,40,38,96,80,59,29.99,29.86,13,6,22,0.26
2013-4-9,63,57,43,43,36,28,90,48,26,30.05,29.96,6,4,13,0.00
2013-4-10,64,64,63,30,29,28,28,27,26,30.05,30.02,3,3,6,0.00
2013-4-11,61,50,42,49,44,40,94,83,54,29.98,29.87,8,2,12,0.00
2013-4-12,66,52,42,52,44,38,96,78,39,29.90,29.83,3,1,5,0.00
2013-4-13,55,47,41,48,42,36,95,82,60,29.92,29.84,8,3,11,0.00
2013-4-14,56,47,40,44,40,34,95,80,46,29.94,29.85,8,3,14,0.00
2013-4-15,48,44,41,46,40,35,96,86,75,29.99,29.87,11,5,17,0.27
2013-4-16,54,46,37,40,34,27,91,65,40,30.11,29.97,8,2,11,0.00
2013-4-17,59,53,42,38,30,25,84,42,29,30.22,30.11,10,3,17,0.00
2013-4-18,70,59,51,40,31,23,53,35,18,30.24,30.18,6,1,7,0.00
2013-4-19,76,62,51,50,40,30,77,45,29,30.20,30.05,6,2,8,0.00
2013-4-20,79,60,43,52,44,28,95,58,25,30.06,29.97,5,2,14,0.00
2013-4-21,83,71,64,48,39,27,43,31,24,29.99,29.91,3,1,4,0.00
2013-4-22,80,69,58,50,43,36,60,39,30,29.92,29.83,3,1,3,0.00
2013-4-23,73,56,42,54,45,28,95,70,21,29.91,29.80,4,1,6,0.00
2013-4-24,60,52,43,50,47,37,96,84,47,29.96,29.81,17,5,25,0.00
2013-4-25,65,53,45,52,47,42,96,81,59,30.11,29.95,4,1,4,0.00
2013-4-26,68,54,46,54,45,35,93,71,56,30.18,30.09,3,1,6,0.00
2013-4-27,77,63,43,56,45,28,94,55,22,30.18,30.04,3,1,5,0.00
2013-4-28,74,66,53,54,38,15,68,41,15,30.04,29.86,3,1,5,0.00
2013-4-29,84,70,49,55,46,34,86,46,25,29.87,29.74,3,1,5,0.00
2013-4-30,69,56,43,52,46,26,96,72,24,29.84,29.74,4,1,5,0.00
2013-5-1,74,62,52,55,41,21,81,48,20,30.05,29.84,2,1,3,0.00
2013-5-2,86,74,65,47,38,28,37,28,19,30.11,30.04,3,1,4,0.00
2013-5-3,87,74,64,41,30,20,30,20,14,30.04,29.75,5,2,7,0.00
2013-5-4,74,64,49,53,41,20,87,47,17,29.75,29.56,16,2,21,0.00
2013-5-5,55,53,51,50,46,40,90,79,57,29.77,29.58,26,18,38,0.00
2013-5-6,60,55,51,49,47,45,89,74,62,29.95,29.77,22,8,27,0.02
2013-5-7,65,55,50,54,48,43,88,77,58,30.04,29.93,13,2,14,0.00
2013-5-8,64,54,45,52,46,40,95,77,65,30.12,30.03,3,1,5,0.00
2013-5-9,63,50,44,53,47,43,96,89,66,30.16,30.08,3,1,6,0.00
2013-5-10,66,53,46,56,49,44,96,86,67,30.16,30.09,5,2,6,0.00
2013-5-12,79,70,64,58,52,33,69,54,28,30.07,29.97,6,1,8,0.00
2013-5-13,75,64,52,58,46,30,88,54,23,30.03,29.95,4,1,5,0.00
2013-5-14,57,52,46,50,47,42,91,85,78,30.07,29.97,6,3,7,0.00
2013-5-15,56,49,45,48,44,42,90,85,69,30.07,30.03,6,1,8,0.00
2013-5-16,65,55,48,54,49,44,95,82,65,30.06,29.98,6,2,8,0.00
2013-5-17,58,52,46,49,44,39,89,73,64,30.08,29.94,6,2,10,0.00
2013-5-18,60,51,43,51,46,39,94,81,62,30.14,30.07,5,2,7,0.00
2013-5-19,72,59,44,55,46,40,93,63,38,30.13,29.97,7,2,8,0.00
2013-5-20,86,72,63,55,38,21,48,29,18,29.97,29.90,6,2,10,0.00
2013-5-21,68,53,46,50,39,-2,84,65,6,30.00,29.85,11,4,16,0.00
2013-5-22,58,47,40,41,38,29,87,71,36,29.99,29.90,9,4,14,0.00
2013-5-23,51,46,43,43,40,36,88,78,68,30.04,29.96,9,5,17,0.00
2013-5-24,60,47,40,49,42,36,94,81,65,30.04,29.96,7,2,7,0.00
2013-5-25,54,47,41,46,43,37,94,86,74,30.08,30.00,8,3,10,0.00
2013-5-26,65,54,47,53,49,45,96,85,62,30.14,30.06,7,3,9,0.00
2013-5-27,64,55,48,53,49,38,95,79,46,30.13,30.02,11,4,11,0.00
2013-5-28,64,56,48,59,52,45,96,87,71,30.02,29.91,8,2,11,0.01
2013-5-29,67,57,48,57,49,26,93,76,27,29.95,29.89,6,3,10,0.00
2013-5-30,64,52,44,51,44,19,95,75,17,29.99,29.89,6,2,8,0.00
2013-5-31,83,64,44,53,42,32,88,50,17,29.98,29.91,7,2,15,0.00
2013-6-1,86,72,50,57,47,41,82,44,25,29.91,29.75,4,1,6,0.00
2013-6-2,64,51,46,52,47,44,96,88,66,29.79,29.71,4,1,5,0.00
2013-6-3,64,54,47,55,50,46,96,86,70,29.86,29.75,15,3,21,0.00
2013-6-4,49,49,48,47,47,46,95,94,93,29.86,29.84,2,1,3,0.00
2013-6-5,65,54,48,53,49,47,95,85,65,29.97,29.94,1,0,2,0.00
2013-6-6,68,54,46,55,49,45,96,86,64,29.94,29.89,2,1,4,0.00
2013-6-17,64,57,52,54,51,49,88,81,70,30.04,30.00,7,4,10,0.00
2013-6-18,60,54,50,50,49,47,95,83,68,30.02,29.98,6,2,8,0.00
2013-6-27,79,77,75,55,54,51,48,46,41,29.98,29.97,1,0,1,0.00
2013-6-28,87,84,77,59,44,37,42,26,18,29.97,29.88,3,1,7,0.00
2013-6-29,90,85,77,52,46,40,35,27,20,29.88,29.78,7,3,15,0.00
2013-6-30,83,78,73,60,49,40,49,36,23,29.81,29.73,5,2,7,0.00
2013-7-1,84,76,71,55,41,30,54,30,15,29.83,29.75,2,0,3,0.00
2013-7-2,83,72,63,60,50,28,77,49,18,29.90,29.79,9,1,16,0.00
2013-7-3,83,72,57,61,54,41,86,54,27,29.88,29.75,3,1,5,0.00
2013-7-4,76,68,59,59,53,47,79,60,42,29.76,29.71,4,1,5,0.00
2013-7-5,63,56,50,54,50,46,94,82,54,29.81,29.75,4,2,5,0.00
2013-7-6,67,54,47,55,50,46,95,87,64,29.84,29.78,2,0,3,0.00
2013-7-7,49,48,46,47,46,43,94,93,92,29.83,29.80,1,0,3,0.00
2013-7-8,74,66,47,57,48,18,96,57,14,29.96,29.91,2,1,3,0.00
2013-7-9,85,72,56,61,43,17,78,40,12,29.97,29.92,3,1,5,0.00
2013-7-10,66,62,53,46,41,38,74,48,36,29.94,29.91,2,0,3,0.00
2013-7-11,50,50,50,48,48,48,94,94,94,29.92,29.92,2,2,2,0.00
2013-7-12,70,65,48,56,50,30,88,61,25,29.94,29.88,2,1,3,0.00
2013-7-13,79,66,56,56,44,29,70,46,22,29.94,29.88,2,0,3,0.00
2013-7-14,74,66,56,57,46,33,71,49,28,29.95,29.89,2,1,3,0.00
2013-7-17,60,53,48,53,50,46,96,91,78,30.04,30.02,4,2,5,0.00
2013-7-18,73,62,47,58,48,24,96,63,24,30.03,29.92,4,1,6,0.00
2013-7-19,68,57,46,45,36,24,92,54,19,29.92,29.88,4,1,5,0.00
2013-8-1,64,58,49,54,50,36,95,77,49,30.08,29.96,4,3,6,0.00
2013-8-2,69,54,46,56,50,35,96,85,50,29.98,29.93,4,2,6,0.00
2013-8-3,69,55,46,58,51,45,97,88,64,30.00,29.93,4,1,4,0.01
2013-8-4,68,55,46,57,50,45,96,87,64,30.01,29.97,3,1,4,0.00
2013-8-5,72,56,45,58,51,44,96,83,60,30.01,29.95,3,1,5,0.01
2013-8-6,68,55,47,56,51,46,96,86,63,30.03,29.96,2,1,3,0.00
2013-8-8,53,52,51,51,50,49,94,93,92,29.97,29.95,2,0,2,0.00
2013-8-9,68,56,47,57,52,45,96,86,64,29.99,29.90,3,1,5,0.00
2013-8-10,71,60,50,59,54,48,96,80,63,30.03,29.96,3,1,3,0.00
2013-8-11,74,61,53,59,52,45,94,73,56,29.99,29.93,3,1,4,0.00
2013-8-12,70,62,56,58,47,42,79,59,49,29.97,29.91,2,0,3,0.00
2013-8-19,88,70,54,60,56,51,93,64,35,29.86,29.80,5,1,7,0.00
2013-8-20,72,62,51,59,54,49,95,76,48,29.88,29.81,5,1,5,0.00
2013-8-21,72,58,48,57,52,46,96,82,58,29.93,29.86,2,0,3,0.00
2013-8-22,71,59,52,56,52,49,93,81,56,29.96,29.89,4,1,9,0.00
2013-8-23,74,58,48,59,52,45,96,84,57,29.91,29.82,4,1,7,0.00
2013-8-24,76,63,52,60,53,42,95,69,50,29.87,29.83,5,2,9,0.00
2013-8-25,77,65,54,62,56,48,94,72,58,29.92,29.86,3,1,6,0.00
2013-8-26,74,63,56,60,52,45,83,69,60,29.95,29.86,6,1,9,0.00
2013-8-27,75,65,57,59,52,45,91,65,48,29.86,29.82,3,1,4,0.00
2013-8-28,78,67,60,61,52,39,82,61,37,29.91,29.81,7,1,9,0.00
2013-8-29,78,67,58,62,53,35,76,60,35,30.00,29.91,6,1,7,0.00
2013-8-30,85,75,70,61,52,43,62,46,32,29.96,29.88,6,1,7,0.00
2013-8-31,81,72,64,59,55,51,72,56,42,29.92,29.86,3,1,3,0.00
2013-9-1,80,68,61,62,57,52,88,67,51,29.90,29.85,3,1,4,0.00
2013-9-2,80,67,60,63,59,56,90,77,54,29.92,29.84,6,1,8,0.00
2013-9-3,78,65,57,57,53,48,91,67,43,29.96,29.89,4,1,5,0.00
2013-9-4,78,64,56,58,52,46,79,66,50,29.98,29.93,5,1,7,0.00
2013-9-5,76,62,54,57,52,48,90,71,51,29.98,29.93,6,2,7,0.00
2013-9-6,89,75,58,57,47,31,69,39,22,29.95,29.80,3,1,4,0.00
2013-9-7,87,74,66,58,50,38,67,42,32,29.84,29.78,3,1,4,0.00
2013-9-8,79,69,57,60,48,33,74,48,30,29.83,29.75,3,1,5,0.00
2013-9-17,64,56,51,52,50,48,91,80,60,29.88,29.86,10,4,23,0.00
2013-9-18,79,64,51,55,49,43,93,60,29,29.87,29.81,9,2,14,0.00
2013-9-19,86,72,64,54,40,23,61,34,18,29.82,29.73,2,1,4,0.00
2013-9-20,72,60,50,58,50,37,90,72,36,29.88,29.74,4,1,7,0.00
2013-9-21,64,58,51,59,55,50,96,89,74,29.91,29.82,14,3,18,0.28
2013-9-22,55,53,51,51,50,49,94,87,82,29.92,29.90,4,1,6,0.00
2013-9-23,78,70,62,56,53,47,71,57,41,29.96,29.88,8,3,11,0.00
2013-9-24,64,61,58,53,49,48,76,66,57,29.93,29.89,4,0,5,0.00
2013-9-27,74,66,57,40,34,28,43,32,21,30.06,29.99,9,2,11,0.00
2013-9-28,79,66,57,46,36,28,53,33,22,30.05,29.98,3,0,5,0.00
2013-9-29,77,66,56,58,45,25,86,51,22,30.05,30.01,4,1,5,0.00
2013-9-30,75,63,56,60,54,45,87,73,59,30.05,29.93,7,2,11,0.00
2013-10-1,64,56,49,56,46,30,91,71,40,29.99,29.91,7,2,8,0.00
2013-10-2,70,57,48,54,39,11,80,56,16,30.00,29.90,5,1,7,0.00
2013-10-3,70,58,46,45,37,25,84,48,19,29.99,29.92,9,3,14,0.00
2013-10-4,77,67,58,34,28,21,33,24,17,30.05,29.91,7,1,10,0.00
2013-10-5,66,65,63,27,23,18,24,20,16,30.11,30.05,3,2,6,0.00
2013-10-6,83,74,66,38,27,20,25,17,10,30.06,29.96,13,2,16,0.00
2013-10-7,78,66,57,42,29,20,48,25,17,29.96,29.87,3,1,5,0.00
2013-10-8,67,54,46,53,43,21,92,70,20,29.89,29.77,5,1,6,0.00
2013-10-9,58,50,46,53,46,41,96,87,64,29.79,29.64,6,1,8,0.10
2013-10-10,53,51,48,43,40,38,81,65,58,29.82,29.79,2,0,2,0.00
2013-10-11,66,55,44,52,47,40,93,74,54,30.06,29.98,4,1,4,0.00
2013-10-12,68,55,43,51,45,39,94,70,46,29.99,29.92,4,1,5,0.00
2013-10-13,63,55,48,54,47,41,96,78,49,30.04,29.92,5,1,7,0.00
2013-10-14,78,65,59,47,39,32,50,38,23,30.07,29.95,2,0,5,0.00
2013-10-15,81,69,61,44,38,33,42,33,20,29.98,29.89,4,1,5,0.00
2013-10-16,79,69,63,38,32,28,34,26,18,30.03,29.94,16,3,26,0.00
2013-10-17,81,69,63,41,33,27,35,27,20,30.02,29.93,3,0,4,0.00
2013-10-18,82,70,63,46,34,26,39,27,20,29.99,29.94,2,0,3,0.00
2013-10-19,84,71,66,48,32,25,43,23,18,30.00,29.96,2,0,5,0.00
2013-10-20,80,70,62,52,36,24,59,30,19,29.97,29.86,2,0,4,0.00
2013-10-21,74,66,58,50,32,28,60,29,22,29.93,29.87,2,0,4,0.00
2013-10-29,58,53,50,54,50,48,96,89,78,29.99,29.97,3,1,5,0.02
2013-10-30,64,57,53,51,46,43,84,66,54,30.12,30.03,3,1,4,0.00
2013-10-31,71,60,51,49,44,37,69,56,41,30.12,30.02,3,1,4,0.00
2013-11-1,77,64,57,47,39,30,51,41,25,30.08,29.98,3,1,3,0.00
2013-11-2,78,63,53,52,34,17,84,38,18,29.99,29.89,5,1,7,0.00
2013-11-4,59,57,54,30,27,26,41,32,29,30.02,29.98,5,3,9,0.00
2013-11-5,70,61,55,41,31,22,48,32,21,30.18,30.01,6,2,13,0.00
2013-11-6,74,64,57,38,31,21,39,29,19,30.18,30.12,3,1,5,0.00
2013-11-7,76,64,57,48,27,14,62,27,15,30.13,30.01,3,1,5,0.00
2013-11-8,79,67,61,49,29,15,56,26,14,30.02,29.89,4,1,5,0.00
2013-11-9,76,60,47,50,34,15,92,43,16,30.00,29.91,10,2,16,0.00
2013-11-10,62,51,45,52,46,25,94,83,35,30.11,29.99,6,2,8,0.00
2013-11-11,72,59,46,50,40,31,89,51,29,30.14,30.05,3,0,6,0.00
2013-11-12,71,63,54,52,44,31,69,51,28,30.21,30.11,4,1,6,0.00
2013-11-13,68,66,64,41,35,31,41,32,26,30.17,30.12,2,1,6,0.00
2013-11-15,54,47,43,47,42,37,88,83,76,29.80,29.73,4,1,8,0.00
2013-11-30,66,60,57,46,33,24,54,36,25,30.20,30.13,3,1,5,0.00
2013-12-1,75,54,58,41,14,-100,41,29,26,30.25,30.14,7,-168,10,0.00
2013-12-2,73,48,48,51,19,-100,94,54,26,30.16,29.92,6,-177,10,0.00
2013-12-3,58,50,48,48,47,46,94,89,68,29.94,29.92,5,3,7,0.00
2013-12-8,46,38,33,31,26,16,71,60,49,30.24,30.13,5,1,8,0.00
2013-12-9,52,36,32,38,3,-100,75,42,23,30.35,30.21,3,-180,4,0.00
2013-12-10,55,23,42,15,-45,-100,26,11,17,30.34,30.23,2,-489,6,0.00
2013-12-12,48,46,44,32,21,18,59,37,30,30.20,30.18,4,1,5,0.00
2013-12-13,66,44,43,44,7,-100,71,33,22,30.25,30.16,6,-171,8,0.00
2013-12-14,70,50,54,36,4,-100,38,23,17,30.29,30.22,4,-180,8,0.00
2013-12-15,75,53,58,34,-2,-100,28,15,13,30.27,30.12,3,-205,3,0.00
2013-12-16,77,56,66,38,1,-100,28,15,12,30.12,30.03,3,-190,4,0.00
2013-12-17,78,56,60,45,5,-100,49,20,15,30.08,29.96,4,-190,5,0.00
2013-12-18,62,42,46,49,16,-100,94,62,27,29.96,29.82,5,-187,8,0.00
2013-12-19,50,37,43,44,10,-100,95,58,40,29.89,29.72,6,-198,12,0.05
2013-12-20,60,43,44,31,-1,-100,46,24,14,29.96,29.87,6,-175,12,0.00
2013-12-21,61,44,45,50,16,-100,95,53,32,30.05,29.92,5,-172,8,0.00
2013-12-22,63,45,49,47,15,-100,74,48,42,30.26,30.05,2,-180,3,0.00
2013-12-23,70,50,50,43,12,-100,54,33,30,30.34,30.25,3,-172,3,0.00
2013-12-24,74,52,58,40,6,-100,36,25,24,30.25,30.10,4,-211,9,0.00
2013-12-25,76,67,62,38,32,25,34,28,23,30.17,30.12,2,0,6,0.00
2013-12-26,80,57,62,29,-2,-100,24,13,10,30.16,30.08,3,-180,5,0.00
2013-12-27,77,56,56,29,-4,-100,33,12,8,30.13,30.02,5,-170,6,0.00
2013-12-28,74,52,59,31,-7,-100,28,12,8,30.03,29.91,7,-200,16,0.00
2013-12-29,74,52,56,34,1,-100,33,17,14,30.12,29.99,2,-174,4,0.00
2013-12-30,69,48,54,44,0,-100,54,21,17,30.21,30.10,5,-183,6,0.00
2013-12-31,72,47,46,46,6,-100,92,32,15,30.21,30.08,5,-172,5,0.00
2014-1-1,74,53,55,35,0,-100,35,16,12,30.15,30.04,3,-173,4,0.00
2014-1-2,75,54,60,34,2,-100,31,17,12,30.08,29.97,3,-182,3,0.00